Time;durP1;ratioP1;P1;durP2;ratioP2;P2;SDS_P1;SDS_P2;PMS_P1;PMS_P2;Temp;Humidity;BMP_temperature;BMP_pressure;BME280_temperature;BME280_humidity;BME280_pressure;Samples;Min_cycle;Max_cycle;Signal;HPM_P1;HPM_P2
2022/04/03 00:02:24;;;;;;;3.00;1.55;;;19.30;64.60;;;;;;7901183;28;20310;-53
2022/04/03 00:06:09;;;;;;;3.85;1.67;;;19.30;64.60;;;;;;7901503;28;20215;-52
2022/04/03 00:09:55;;;;;;;2.80;1.40;;;19.20;64.50;;;;;;7900990;28;20196;-54
2022/04/03 00:13:41;;;;;;;3.72;1.40;;;19.20;64.60;;;;;;7901191;28;20197;-52
2022/04/03 00:17:27;;;;;;;3.30;1.40;;;19.20;64.60;;;;;;7901240;28;20654;-54
2022/04/03 00:21:13;;;;;;;2.47;1.65;;;19.20;64.50;;;;;;7900769;28;20533;-52
2022/04/03 00:24:59;;;;;;;1.63;1.10;;;19.20;64.40;;;;;;7901009;28;20257;-52
2022/04/03 00:28:44;;;;;;;2.92;1.40;;;19.10;64.40;;;;;;7900723;28;20263;-52
2022/04/03 00:32:30;;;;;;;1.98;1.10;;;19.10;64.40;;;;;;7900316;28;20204;-54
2022/04/03 00:36:15;;;;;;;1.65;1.10;;;19.10;64.40;;;;;;7900562;28;20204;-52
2022/04/03 00:40:01;;;;;;;1.40;1.30;;;19.10;64.40;;;;;;7900443;28;20173;-52
2022/04/03 00:43:47;;;;;;;2.97;1.42;;;19.10;64.40;;;;;;7900478;28;20692;-52
2022/04/03 00:47:33;;;;;;;2.92;1.50;;;19.00;64.20;;;;;;7900412;28;20177;-53
2022/04/03 00:51:20;;;;;;;2.90;1.42;;;19.00;64.20;;;;;;7899936;28;20665;-54
2022/04/03 00:55:06;;;;;;;1.70;1.30;;;19.00;64.20;;;;;;7900268;28;20193;-52
2022/04/03 00:58:51;;;;;;;2.40;1.35;;;19.00;64.30;;;;;;7899559;28;20180;-52
2022/04/03 01:02:37;;;;;;;2.65;1.40;;;19.00;64.20;;;;;;7904858;28;20566;-52
2022/04/03 01:06:22;;;;;;;1.70;1.30;;;18.90;64.20;;;;;;7906627;28;20204;-52
2022/04/03 01:10:08;;;;;;;3.67;1.40;;;18.90;64.20;;;;;;7906202;28;20203;-53
2022/04/03 01:13:54;;;;;;;1.70;1.23;;;18.90;64.20;;;;;;7906232;28;20197;-53
2022/04/03 01:17:40;;;;;;;2.22;1.40;;;18.90;64.20;;;;;;7906195;28;20184;-53
2022/04/03 01:21:25;;;;;;;2.42;1.10;;;18.80;64.10;;;;;;7905932;28;20204;-52
2022/04/03 01:25:11;;;;;;;2.17;1.23;;;18.90;64.20;;;;;;7905915;28;20200;-53
2022/04/03 01:28:56;;;;;;;2.58;1.48;;;18.80;64.20;;;;;;7906149;28;20204;-52
2022/04/03 01:32:42;;;;;;;1.63;1.27;;;18.80;64.20;;;;;;7905674;28;20207;-52
2022/04/03 01:36:27;;;;;;;1.95;1.20;;;18.80;64.20;;;;;;7905976;28;20670;-52
2022/04/03 01:40:13;;;;;;;1.45;1.27;;;18.70;64.10;;;;;;7905714;28;20192;-54
2022/04/03 01:43:58;;;;;;;1.80;1.20;;;18.70;64.10;;;;;;7906045;28;20203;-53
2022/04/03 01:47:44;;;;;;;1.38;1.20;;;18.70;64.10;;;;;;7905483;28;20176;-53
2022/04/03 01:51:29;;;;;;;2.17;1.23;;;18.70;64.10;;;;;;7904794;28;20295;-53
2022/04/03 01:55:15;;;;;;;1.45;1.30;;;18.60;64.00;;;;;;7905118;28;20237;-54
2022/04/03 01:59:02;;;;;;;1.80;1.30;;;18.60;64.00;;;;;;7905492;28;20172;-49
2022/04/03 02:02:50;;;;;;;1.88;1.30;;;18.60;64.10;;;;;;7905046;28;20194;-52
2022/04/03 02:06:36;;;;;;;2.08;1.20;;;18.60;64.00;;;;;;7905179;28;20222;-51
2022/04/03 02:10:21;;;;;;;1.20;1.10;;;18.60;64.10;;;;;;7904422;28;20698;-50
2022/04/03 02:14:06;;;;;;;2.40;1.35;;;18.60;64.00;;;;;;7904008;28;20212;-49
2022/04/03 02:17:52;;;;;;;1.65;1.30;;;18.50;64.00;;;;;;7904384;28;20208;-50
2022/04/03 02:21:37;;;;;;;1.52;1.10;;;18.60;64.00;;;;;;7904095;28;20537;-49
2022/04/03 02:25:24;;;;;;;1.13;1.02;;;18.50;63.90;;;;;;7904339;28;20287;-49
2022/04/03 02:29:10;;;;;;;1.73;1.33;;;18.50;63.90;;;;;;7904061;28;20177;-50
2022/04/03 02:32:58;;;;;;;1.10;1.00;;;18.60;63.90;;;;;;7903989;28;20846;-52
2022/04/03 02:36:44;;;;;;;1.90;1.10;;;18.50;63.90;;;;;;7903922;28;20200;-50
2022/04/03 02:40:30;;;;;;;1.42;1.05;;;18.50;63.90;;;;;;7903735;28;20263;-51
2022/04/03 02:44:16;;;;;;;1.92;1.17;;;18.40;63.90;;;;;;7903560;28;20196;-50
2022/04/03 02:48:01;;;;;;;2.25;1.27;;;18.40;64.00;;;;;;7903838;28;20181;-49
2022/04/03 02:51:47;;;;;;;2.20;1.23;;;18.40;63.80;;;;;;7903034;28;20215;-51
2022/04/03 02:55:32;;;;;;;1.80;1.35;;;18.40;63.90;;;;;;7903362;28;20567;-49
2022/04/03 02:59:18;;;;;;;2.63;1.00;;;18.40;63.90;;;;;;7903020;28;20791;-50
2022/04/03 03:03:06;;;;;;;1.65;1.17;;;18.40;63.90;;;;;;7903000;28;20177;-50
2022/04/03 03:06:51;;;;;;;2.30;1.20;;;18.40;63.90;;;;;;7903335;28;20177;-50
2022/04/03 03:10:37;;;;;;;1.70;1.20;;;18.30;64.70;;;;;;7902870;28;20208;-50
2022/04/03 03:14:23;;;;;;;1.23;1.10;;;18.30;63.70;;;;;;7903147;28;20245;-50
2022/04/03 03:18:08;;;;;;;1.27;1.10;;;18.30;63.80;;;;;;7903016;28;20169;-50
2022/04/03 03:21:54;;;;;;;1.55;1.10;;;18.30;63.90;;;;;;7902789;28;20191;-49
2022/04/03 03:25:39;;;;;;;2.17;1.25;;;18.30;64.00;;;;;;7902117;28;20201;-49
2022/04/03 03:29:25;;;;;;;1.75;1.25;;;18.30;64.00;;;;;;7902123;28;20181;-51
2022/04/03 03:33:10;;;;;;;1.30;1.05;;;18.20;63.90;;;;;;7902220;28;20247;-51
2022/04/03 03:36:56;;;;;;;3.22;1.52;;;18.20;63.90;;;;;;7902066;28;20184;-51
2022/04/03 03:40:41;;;;;;;1.70;1.20;;;18.20;63.90;;;;;;7901809;28;20253;-50
2022/04/03 03:44:27;;;;;;;3.63;1.20;;;18.20;63.80;;;;;;7901797;28;20185;-50
2022/04/03 03:48:12;;;;;;;2.25;1.10;;;18.20;63.90;;;;;;7901797;28;20172;-50
2022/04/03 03:51:58;;;;;;;1.85;1.20;;;18.20;63.90;;;;;;7901299;28;20204;-49
2022/04/03 03:55:43;;;;;;;1.25;1.00;;;18.10;63.80;;;;;;7901547;28;20227;-50
2022/04/03 03:59:29;;;;;;;1.80;1.20;;;18.10;63.90;;;;;;7901154;28;20234;-50
2022/04/03 04:03:14;;;;;;;1.67;1.15;;;18.10;63.80;;;;;;7901748;28;20230;-49
2022/04/03 04:07:00;;;;;;;6.00;1.30;;;18.10;63.80;;;;;;7901205;28;20168;-49
2022/04/03 04:10:45;;;;;;;1.48;1.23;;;18.10;63.80;;;;;;7900851;28;20661;-50
2022/04/03 04:14:31;;;;;;;2.08;1.10;;;18.10;63.80;;;;;;7900951;28;20189;-51
2022/04/03 04:18:16;;;;;;;1.50;1.25;;;18.10;63.90;;;;;;7900990;28;20173;-50
2022/04/03 04:22:02;;;;;;;2.38;0.90;;;18.10;63.80;;;;;;7900728;28;20192;-50
2022/04/03 04:25:48;;;;;;;1.65;1.10;;;18.10;63.80;;;;;;7900651;28;20279;-50
2022/04/03 04:29:33;;;;;;;2.30;1.15;;;18.10;63.80;;;;;;7900307;28;20180;-50
2022/04/03 04:33:19;;;;;;;2.53;1.15;;;18.10;63.40;;;;;;7898575;28;20299;-51
2022/04/03 04:37:05;;;;;;;3.03;1.38;;;18.00;63.70;;;;;;7899586;28;20204;-50
2022/04/03 04:40:51;;;;;;;2.40;1.15;;;18.10;63.80;;;;;;7899586;28;20246;-50
2022/04/03 04:44:36;;;;;;;2.92;1.30;;;18.00;63.60;;;;;;7900734;28;20215;-49
2022/04/03 04:48:22;;;;;;;2.47;1.25;;;18.00;63.80;;;;;;7900097;28;20172;-50
2022/04/03 04:52:08;;;;;;;3.03;1.23;;;18.00;63.40;;;;;;7899428;28;20223;-51
2022/04/03 04:55:54;;;;;;;1.60;1.10;;;18.00;63.80;;;;;;7900449;28;20184;-50
2022/04/03 04:59:39;;;;;;;6.95;1.30;;;17.90;63.70;;;;;;7900342;28;20177;-49
2022/04/03 05:03:25;;;;;;;2.92;1.13;;;18.00;63.80;;;;;;7900365;28;20212;-49
2022/04/03 05:07:11;;;;;;;2.00;1.23;;;18.00;63.80;;;;;;7899702;28;20173;-52
2022/04/03 05:10:57;;;;;;;2.92;2.13;;;18.00;64.00;;;;;;7899828;28;20208;-50
2022/04/03 05:14:43;;;;;;;1.58;1.08;;;18.00;63.80;;;;;;7902769;28;20267;-51
2022/04/03 05:18:29;;;;;;;2.05;1.02;;;18.00;63.80;;;;;;7931633;28;20187;-52
2022/04/03 05:22:14;;;;;;;1.35;1.23;;;18.00;63.80;;;;;;7931387;28;20229;-49
2022/04/03 05:26:00;;;;;;;2.30;1.10;;;17.90;63.90;;;;;;7931064;28;20200;-51
2022/04/03 05:29:46;;;;;;;3.03;1.40;;;17.90;63.80;;;;;;7912826;28;20204;-51
2022/04/03 05:33:31;;;;;;;5.30;1.70;;;17.90;63.90;;;;;;7899663;28;20208;-51
2022/04/03 05:37:17;;;;;;;1.50;1.17;;;17.90;64.00;;;;;;7899628;28;20670;-49
2022/04/03 05:41:02;;;;;;;2.10;1.38;;;17.90;64.00;;;;;;7899431;28;20203;-50
2022/04/03 05:44:48;;;;;;;1.15;1.00;;;17.90;64.00;;;;;;7899450;28;20679;-50
2022/04/03 05:48:34;;;;;;;3.28;1.33;;;17.90;64.00;;;;;;7903551;28;20181;-51
2022/04/03 05:52:20;;;;;;;3.22;1.60;;;17.90;64.00;;;;;;7932678;28;20235;-51
2022/04/03 05:56:05;;;;;;;1.80;1.05;;;17.80;65.00;;;;;;7936608;28;20211;-52
2022/04/03 05:59:51;;;;;;;1.73;1.20;;;17.80;64.00;;;;;;7936489;28;20654;-50
2022/04/03 06:03:36;;;;;;;1.90;1.05;;;17.80;64.10;;;;;;7925501;28;20208;-50
2022/04/03 06:07:22;;;;;;;2.22;1.20;;;17.80;64.10;;;;;;7904232;28;20212;-50
2022/04/03 06:11:07;;;;;;;2.17;1.20;;;17.80;64.00;;;;;;7904605;28;20208;-50
2022/04/03 06:14:53;;;;;;;2.30;1.42;;;17.80;64.10;;;;;;7904420;28;20192;-50
2022/04/03 06:18:38;;;;;;;2.72;1.20;;;17.70;64.20;;;;;;7904720;28;20172;-52
2022/04/03 06:22:24;;;;;;;1.83;1.35;;;17.80;64.20;;;;;;7904056;28;20599;-49
2022/04/03 06:26:09;;;;;;;8.13;1.17;;;17.80;64.20;;;;;;7904058;28;20598;-51
2022/04/03 06:29:55;;;;;;;4.50;1.30;;;17.70;63.70;;;;;;7903353;28;20238;-49
2022/04/03 06:33:41;;;;;;;6.53;1.70;;;17.70;64.00;;;;;;7904926;28;20204;-50
2022/04/03 06:37:26;;;;;;;2.72;1.38;;;17.70;63.70;;;;;;7904015;28;20263;-51
2022/04/03 06:41:12;;;;;;;7.45;1.42;;;17.70;64.00;;;;;;7910281;28;20287;-49
2022/04/03 06:45:02;;;;;;;2.45;1.33;;;17.70;64.00;;;;;;7903797;28;20708;-49
2022/04/03 06:48:48;;;;;;;8.52;1.40;;;17.70;64.10;;;;;;7903746;28;20263;-51
2022/04/03 06:52:34;;;;;;;3.55;1.25;;;17.70;64.10;;;;;;7903406;28;20428;-50
2022/04/03 06:56:19;;;;;;;2.45;1.17;;;17.60;64.10;;;;;;7903362;28;20606;-50
2022/04/03 07:00:07;;;;;;;4.97;1.50;;;17.60;64.20;;;;;;7902338;28;20341;-51
2022/04/03 07:03:52;;;;;;;2.40;1.50;;;17.60;64.30;;;;;;7904366;28;20606;-50
2022/04/03 07:07:37;;;;;;;5.85;1.50;;;17.60;64.30;;;;;;7902699;28;20250;-51
2022/04/03 07:11:23;;;;;;;6.53;1.55;;;17.60;64.30;;;;;;7902735;28;20560;-49
2022/04/03 07:15:11;;;;;;;6.40;1.90;;;17.50;63.90;;;;;;7902887;28;20241;-50
2022/04/03 07:18:57;;;;;;;12.48;2.08;;;17.60;64.20;;;;;;7903015;28;20212;-49
2022/04/03 07:22:43;;;;;;;15.52;2.30;;;17.50;64.00;;;;;;7902316;28;20181;-50
2022/04/03 07:26:29;;;;;;;13.50;2.15;;;17.50;63.50;;;;;;7902286;28;20682;-50
2022/04/03 07:30:14;;;;;;;40.97;3.15;;;17.50;64.10;;;;;;7908787;28;20580;-50
2022/04/03 07:34:00;;;;;;;23.75;2.90;;;17.50;63.80;;;;;;7933709;28;20200;-51
2022/04/03 07:37:45;;;;;;;24.40;2.40;;;17.50;63.80;;;;;;7933662;28;20179;-52
2022/04/03 07:41:31;;;;;;;15.35;2.28;;;17.50;64.20;;;;;;7933452;28;20713;-50
2022/04/03 07:45:16;;;;;;;28.92;2.47;;;17.40;64.30;;;;;;7933436;28;20199;-52
2022/04/03 07:49:03;;;;;;;23.90;2.92;;;17.40;64.20;;;;;;7933260;28;20168;-53
2022/04/03 07:52:48;;;;;;;13.25;2.90;;;17.40;64.20;;;;;;7932990;28;20199;-50
2022/04/03 07:56:35;;;;;;;12.27;2.20;;;17.50;63.50;;;;;;7917833;28;20286;-52
2022/04/03 08:00:20;;;;;;;16.23;2.03;;;17.40;64.30;;;;;;7921283;28;20176;-54
2022/04/03 08:04:05;;;;;;;13.57;2.28;;;17.40;63.50;;;;;;7908806;28;20209;-55
2022/04/03 08:07:51;;;;;;;15.13;2.38;;;17.50;64.10;;;;;;7926810;28;20188;-53
2022/04/03 08:11:37;;;;;;;12.00;2.50;;;17.40;64.10;;;;;;7932364;28;20684;-54
2022/04/03 08:15:22;;;;;;;7.90;2.35;;;17.50;64.10;;;;;;7932807;28;20208;-54
2022/04/03 08:19:08;;;;;;;5.90;1.98;;;17.50;64.00;;;;;;7932649;28;20164;-52
2022/04/03 08:22:53;;;;;;;7.93;1.90;;;17.50;64.10;;;;;;7932632;28;20678;-53
2022/04/03 08:26:39;;;;;;;9.60;2.22;;;17.50;64.00;;;;;;7932501;28;20196;-52
2022/04/03 08:30:31;;;;;;;15.57;2.20;;;17.50;64.00;;;;;;7931977;28;20623;-52
2022/04/03 08:34:17;;;;;;;3.70;2.03;;;17.50;63.80;;;;;;7901220;28;20188;-52
2022/04/03 08:38:03;;;;;;;9.77;1.77;;;17.50;63.60;;;;;;7901172;28;20589;-52
2022/04/03 08:41:48;;;;;;;12.07;2.25;;;17.50;63.10;;;;;;7900882;28;20180;-52
2022/04/03 08:45:34;;;;;;;8.13;2.13;;;17.50;63.50;;;;;;7901053;28;20241;-52
2022/04/03 08:49:20;;;;;;;1.83;1.60;;;17.50;63.50;;;;;;7900466;28;20226;-52
2022/04/03 08:53:08;;;;;;;7.10;1.65;;;17.50;63.20;;;;;;7900736;28;20212;-53
2022/04/03 08:56:54;;;;;;;7.45;1.52;;;17.50;63.50;;;;;;7900611;28;20176;-52
2022/04/03 09:00:39;;;;;;;5.25;1.63;;;17.50;63.60;;;;;;7900112;28;20172;-53
2022/04/03 09:04:27;;;;;;;5.47;1.60;;;17.50;63.00;;;;;;7900245;28;20249;-52
2022/04/03 09:08:13;;;;;;;9.60;3.25;;;17.60;62.50;;;;;;7900270;28;20192;-52
2022/04/03 09:12:18;;;;;;;5.75;1.50;;;17.60;62.80;;;;;;7900025;28;20215;-52
2022/04/03 09:16:07;;;;;;;6.93;1.70;;;17.60;62.40;;;;;;7900344;28;20201;-52
2022/04/03 09:19:54;;;;;;;2.88;1.60;;;17.60;62.40;;;;;;7899867;28;20172;-54
2022/04/03 09:24:08;;;;;;;2.13;1.40;;;17.60;62.60;;;;;;7904550;28;20197;-53
2022/04/03 09:27:57;;;;;;;3.08;1.77;;;17.60;62.80;;;;;;7905928;28;20185;-54
2022/04/03 09:31:44;;;;;;;2.45;1.50;;;17.60;62.40;;;;;;7905570;28;20270;-52
2022/04/03 09:35:32;;;;;;;2.63;1.48;;;17.50;62.20;;;;;;7905713;28;20196;-54
2022/04/03 09:39:19;;;;;;;1.70;1.40;;;17.50;62.40;;;;;;7905478;28;20200;-54
2022/04/03 09:43:16;;;;;;;4.38;1.30;;;17.50;62.20;;;;;;7905775;28;20399;-53
2022/04/03 09:47:29;;;;;;;3.72;1.50;;;17.60;62.40;;;;;;7905828;28;20187;-52
2022/04/03 09:51:22;;;;;;;3.75;1.38;;;17.50;62.70;;;;;;7905051;28;20562;-55
2022/04/03 09:55:20;;;;;;;1.40;1.30;;;17.50;63.00;;;;;;7905461;28;20188;-52
2022/04/03 09:59:08;;;;;;;4.10;1.20;;;17.50;63.00;;;;;;7905011;28;20184;-52
2022/04/03 10:03:02;;;;;;;2.45;1.08;;;17.50;62.50;;;;;;7905040;28;20684;-54
2022/04/03 10:06:47;;;;;;;3.15;1.50;;;17.50;63.00;;;;;;7904899;28;20188;-55
2022/04/03 10:10:35;;;;;;;4.85;1.33;;;17.50;61.80;;;;;;7904979;28;20204;-55
2022/04/03 10:14:21;;;;;;;1.42;1.05;;;17.50;62.60;;;;;;7904859;28;20193;-53
2022/04/03 10:18:07;;;;;;;2.97;1.08;;;17.50;62.60;;;;;;7904748;28;20607;-54
2022/04/03 10:21:54;;;;;;;2.33;1.13;;;17.50;62.40;;;;;;7922944;28;20207;-53
2022/04/03 10:25:44;;;;;;;2.05;1.10;;;17.50;62.50;;;;;;7936412;28;20194;-53
2022/04/03 10:29:32;;;;;;;3.13;1.15;;;17.50;61.80;;;;;;7936259;28;20222;-52
2022/04/03 10:33:23;;;;;;;1.42;1.20;;;17.50;62.50;;;;;;7935706;28;20171;-52
2022/04/03 10:37:23;;;;;;;4.35;1.48;;;17.50;62.20;;;;;;7935986;28;20180;-52
2022/04/03 10:41:25;;;;;;;2.03;1.20;;;17.40;62.10;;;;;;7918772;28;20230;-52
2022/04/03 10:45:13;;;;;;;2.65;1.48;;;17.40;62.70;;;;;;7912931;28;20238;-54
2022/04/03 10:49:00;;;;;;;2.60;1.40;;;17.40;62.80;;;;;;7934559;28;20180;-52
2022/04/03 10:52:46;;;;;;;6.18;1.52;;;17.50;62.90;;;;;;7934479;28;20669;-54
2022/04/03 10:56:32;;;;;;;7.97;1.40;;;17.40;62.50;;;;;;7934648;28;20635;-53
2022/04/03 11:00:18;;;;;;;7.43;1.40;;;17.40;62.50;;;;;;7934621;28;20255;-54
2022/04/03 11:04:11;;;;;;;4.10;1.50;;;17.40;63.00;;;;;;7934813;28;20237;-54
2022/04/03 11:07:59;;;;;;;3.58;1.27;;;17.40;63.00;;;;;;7934803;28;20183;-52
2022/04/03 11:11:50;;;;;;;8.98;2.03;;;17.40;62.90;;;;;;7933600;28;20238;-52
2022/04/03 11:15:56;;;;;;;4.68;1.63;;;17.40;62.90;;;;;;7933778;28;20192;-53
2022/04/03 11:19:46;;;;;;;11.75;3.00;;;17.40;62.80;;;;;;7933776;28;20175;-52
2022/04/03 11:23:54;;;;;;;10.95;1.80;;;17.40;63.30;;;;;;7933703;28;20204;-52
2022/04/03 11:27:41;;;;;;;10.65;1.95;;;17.40;63.00;;;;;;7926600;28;20236;-53
2022/04/03 11:31:27;;;;;;;13.55;1.90;;;17.30;63.40;;;;;;7933644;28;20686;-52
2022/04/03 11:35:13;;;;;;;6.82;1.48;;;17.40;63.80;;;;;;7933753;28;20187;-54
2022/04/03 11:39:00;;;;;;;6.82;1.63;;;17.40;64.10;;;;;;7933489;28;20174;-54
2022/04/03 11:42:46;;;;;;;13.75;2.33;;;17.40;62.90;;;;;;7932758;28;20171;-53
2022/04/03 11:46:36;;;;;;;12.75;2.00;;;17.40;64.10;;;;;;7932765;28;20241;-52
2022/04/03 11:50:21;;;;;;;9.77;1.65;;;17.40;64.40;;;;;;7932906;28;20579;-52
2022/04/03 11:54:07;;;;;;;18.70;2.03;;;17.40;64.50;;;;;;7933388;28;20215;-52
2022/04/03 11:57:53;;;;;;;5.63;1.70;;;17.40;64.60;;;;;;7932968;28;20535;-52
2022/04/03 12:01:50;;;;;;;14.60;1.95;;;17.40;64.70;;;;;;7932864;28;20589;-54
2022/04/03 12:05:36;;;;;;;10.23;1.75;;;17.40;63.80;;;;;;7932271;27;20200;-53
2022/04/03 12:09:22;;;;;;;15.68;1.88;;;17.40;64.70;;;;;;7932571;28;20176;-55
2022/04/03 12:13:15;;;;;;;12.93;1.88;;;17.40;65.00;;;;;;7932757;28;20211;-55
2022/04/03 12:17:09;;;;;;;25.05;1.80;;;17.40;65.20;;;;;;7932544;28;20271;-54
2022/04/03 12:20:57;;;;;;;11.85;1.65;;;17.40;65.30;;;;;;7929707;28;20561;-53
2022/04/03 12:24:47;;;;;;;17.88;1.70;;;17.40;64.60;;;;;;7932744;28;20211;-54
2022/04/03 12:28:33;;;;;;;5.45;1.52;;;17.40;64.70;;;;;;7932802;28;20175;-52
2022/04/03 12:32:22;;;;;;;8.63;1.70;;;17.40;64.70;;;;;;7932004;28;20207;-52
2022/04/03 12:36:08;;;;;;;12.50;1.45;;;17.40;65.40;;;;;;7932180;28;20192;-53
2022/04/03 12:39:53;;;;;;;11.10;2.50;;;17.40;64.40;;;;;;7931949;28;20313;-52
2022/04/03 12:43:44;;;;;;;8.10;1.52;;;17.40;64.30;;;;;;7932396;28;20830;-52
2022/04/03 12:47:34;;;;;;;8.55;1.63;;;17.30;64.30;;;;;;7932171;28;20203;-53
2022/04/03 12:51:20;;;;;;;5.93;1.15;;;17.30;64.20;;;;;;7931516;28;20291;-53
2022/04/03 12:55:28;;;;;;;10.10;1.67;;;17.30;64.20;;;;;;7913716;28;20208;-53
2022/04/03 12:59:21;;;;;;;6.47;1.52;;;17.30;63.80;;;;;;7906359;28;20188;-54
2022/04/03 13:03:06;;;;;;;7.80;1.50;;;17.30;63.90;;;;;;7906783;28;20180;-53
2022/04/03 13:06:52;;;;;;;5.45;1.60;;;17.30;63.70;;;;;;7906901;28;20180;-52
2022/04/03 13:10:59;;;;;;;3.97;1.17;;;17.30;63.70;;;;;;7906607;28;20250;-53
2022/04/03 13:14:44;;;;;;;5.53;1.25;;;17.20;63.90;;;;;;7906942;28;20197;-53
2022/04/03 13:18:30;;;;;;;8.27;1.40;;;17.20;63.70;;;;;;7906578;28;20176;-54
2022/04/03 13:22:16;;;;;;;4.03;1.23;;;17.20;63.70;;;;;;7906380;28;20183;-53
2022/04/03 13:26:01;;;;;;;3.70;1.17;;;17.20;63.60;;;;;;7906391;28;20545;-53
2022/04/03 13:29:47;;;;;;;3.72;1.30;;;17.20;63.70;;;;;;7905839;28;20554;-54
2022/04/03 13:33:32;;;;;;;2.15;1.30;;;17.20;63.70;;;;;;7905949;28;20196;-54
2022/04/03 13:37:18;;;;;;;3.22;1.27;;;17.20;63.50;;;;;;7906029;28;20219;-53
2022/04/03 13:41:03;;;;;;;2.40;1.23;;;17.10;63.70;;;;;;7905553;28;20192;-54
2022/04/03 13:44:49;;;;;;;3.85;1.42;;;17.10;63.60;;;;;;7905847;28;20267;-52
2022/04/03 13:48:37;;;;;;;6.32;1.65;;;17.10;63.50;;;;;;7919827;28;20259;-55
2022/04/03 13:52:24;;;;;;;3.28;1.50;;;17.10;63.60;;;;;;7930785;28;20253;-55
2022/04/03 13:56:11;;;;;;;4.95;1.25;;;17.10;63.80;;;;;;7936772;28;20560;-53
2022/04/03 13:59:57;;;;;;;4.43;1.42;;;17.10;63.50;;;;;;7936509;28;20176;-53
2022/04/03 14:03:46;;;;;;;3.33;1.70;;;17.10;63.50;;;;;;7929556;28;20223;-54
2022/04/03 14:07:31;;;;;;;3.63;1.20;;;17.10;63.50;;;;;;7927070;28;20179;-52
2022/04/03 14:11:17;;;;;;;3.03;1.33;;;17.00;63.50;;;;;;7936219;28;20667;-55
2022/04/03 14:15:04;;;;;;;2.72;1.30;;;17.10;63.60;;;;;;7936199;28;20223;-53
2022/04/03 14:18:49;;;;;;;2.53;1.20;;;17.10;63.50;;;;;;7936304;28;20221;-55
2022/04/03 14:22:37;;;;;;;2.28;1.40;;;17.10;63.80;;;;;;7936096;28;20179;-52
2022/04/03 14:26:22;;;;;;;2.95;1.40;;;17.10;63.80;;;;;;7935940;28;20191;-53
2022/04/03 14:30:08;;;;;;;6.00;1.55;;;17.10;63.80;;;;;;7935105;28;20254;-52
2022/04/03 14:33:54;;;;;;;4.32;1.25;;;17.00;63.60;;;;;;7904104;28;20214;-52
2022/04/03 14:37:39;;;;;;;1.58;1.27;;;17.00;63.60;;;;;;7904156;28;20635;-53
2022/04/03 14:41:25;;;;;;;2.10;1.38;;;17.00;63.70;;;;;;7929843;28;20184;-54
2022/04/03 14:45:11;;;;;;;2.97;1.60;;;17.00;63.70;;;;;;7918423;28;20272;-53
2022/04/03 14:48:56;;;;;;;1.70;1.15;;;17.00;63.70;;;;;;7918802;28;20229;-52
2022/04/03 14:52:42;;;;;;;3.25;1.33;;;17.00;63.70;;;;;;7915330;28;20200;-52
2022/04/03 14:56:28;;;;;;;1.65;1.10;;;17.00;63.70;;;;;;7903998;28;20190;-50
2022/04/03 15:00:13;;;;;;;7.85;1.75;;;17.00;63.40;;;;;;7902883;28;20184;-52
2022/04/03 15:03:59;;;;;;;7.15;1.75;;;17.00;62.50;;;;;;7901592;28;20209;-51
2022/04/03 15:07:46;;;;;;;4.57;1.80;;;17.00;62.40;;;;;;7903145;28;20267;-50
2022/04/03 15:11:31;;;;;;;10.25;2.30;;;17.00;61.90;;;;;;7902556;28;20212;-51
2022/04/03 15:15:17;;;;;;;9.25;1.55;;;16.90;61.80;;;;;;7902658;28;20334;-50
2022/04/03 15:19:02;;;;;;;10.93;1.88;;;17.00;62.80;;;;;;7901354;28;20259;-53
2022/04/03 15:22:48;;;;;;;2.22;1.48;;;16.90;62.70;;;;;;7902822;28;20724;-50
2022/04/03 15:26:34;;;;;;;7.88;1.70;;;17.00;63.30;;;;;;7902431;28;20200;-50
2022/04/03 15:30:20;;;;;;;4.25;1.60;;;17.00;64.10;;;;;;7901156;28;20215;-50
2022/04/03 15:34:05;;;;;;;6.25;2.05;;;17.10;64.40;;;;;;7901992;28;20188;-50
2022/04/03 15:37:51;;;;;;;11.90;2.65;;;17.20;64.40;;;;;;7918227;28;20680;-49
2022/04/03 15:41:36;;;;;;;4.90;1.80;;;17.40;64.40;;;;;;7901708;28;20242;-52
2022/04/03 15:45:22;;;;;;;4.53;1.90;;;17.60;64.40;;;;;;7914963;28;20286;-51
2022/04/03 15:49:07;;;;;;;9.00;2.10;;;17.80;64.30;;;;;;7916187;28;20212;-52
2022/04/03 15:52:53;;;;;;;8.10;2.55;;;18.10;64.30;;;;;;7911448;28;20214;-49
2022/04/03 15:56:39;;;;;;;5.50;2.20;;;18.40;64.20;;;;;;7922790;28;20222;-53
2022/04/03 16:00:25;;;;;;;3.15;2.30;;;18.70;64.10;;;;;;7933001;28;20275;-52
2022/04/03 16:04:11;;;;;;;3.38;1.98;;;18.90;63.90;;;;;;7932683;28;20198;-53
2022/04/03 16:07:57;;;;;;;4.75;2.25;;;19.10;63.70;;;;;;7901327;28;20215;-53
2022/04/03 16:11:42;;;;;;;4.30;2.10;;;19.30;63.60;;;;;;7901253;28;20204;-51
2022/04/03 16:15:30;;;;;;;13.10;2.80;;;19.50;63.50;;;;;;7923015;28;20278;-52
2022/04/03 16:19:15;;;;;;;11.80;1.95;;;19.60;63.40;;;;;;7932650;28;20180;-51
2022/04/03 16:23:01;;;;;;;13.45;2.22;;;19.70;63.50;;;;;;7930213;28;20241;-49
2022/04/03 16:26:50;;;;;;;9.48;1.83;;;19.80;63.50;;;;;;7928708;28;20573;-50
2022/04/03 16:30:36;;;;;;;5.13;2.20;;;19.90;63.60;;;;;;7917620;28;20290;-52
2022/04/03 16:34:22;;;;;;;9.75;2.15;;;19.90;63.60;;;;;;7900592;28;20275;-50
2022/04/03 16:38:15;;;;;;;10.50;2.03;;;19.90;63.70;;;;;;7900264;28;20184;-49
2022/04/03 16:42:01;;;;;;;24.27;2.50;;;20.00;63.70;;;;;;7900358;28;20193;-52
2022/04/03 16:45:46;;;;;;;8.40;2.33;;;20.00;64.00;;;;;;7900434;28;20201;-50
2022/04/03 16:49:31;;;;;;;11.43;2.33;;;20.10;64.40;;;;;;7900150;28;20180;-50
2022/04/03 16:53:18;;;;;;;4.70;1.73;;;20.10;64.50;;;;;;7900124;28;20228;-50
2022/04/03 16:57:04;;;;;;;10.70;2.33;;;20.10;64.50;;;;;;7911086;28;20233;-50
2022/04/03 17:00:49;;;;;;;9.20;2.13;;;20.20;64.70;;;;;;7916632;28;20172;-51
2022/04/03 17:04:35;;;;;;;10.80;1.90;;;20.20;64.80;;;;;;7920242;28;20230;-50
2022/04/03 17:08:20;;;;;;;18.05;2.40;;;20.20;64.70;;;;;;7900104;28;20261;-51
2022/04/03 17:12:08;;;;;;;13.48;1.75;;;20.20;64.60;;;;;;7900078;28;20208;-50
2022/04/03 17:15:54;;;;;;;10.45;2.25;;;20.20;64.40;;;;;;7899973;28;20195;-52
2022/04/03 17:19:41;;;;;;;15.13;2.40;;;20.20;64.30;;;;;;7899914;28;20200;-49
2022/04/03 17:23:27;;;;;;;9.40;2.33;;;20.30;64.40;;;;;;7899988;28;20217;-53
2022/04/03 17:27:14;;;;;;;9.70;2.45;;;20.20;64.40;;;;;;7899722;28;20192;-50
2022/04/03 17:31:01;;;;;;;9.55;2.10;;;20.30;64.30;;;;;;7898857;28;20211;-50
2022/04/03 17:34:46;;;;;;;10.80;2.38;;;20.30;64.30;;;;;;7899703;28;20834;-51
2022/04/03 17:38:33;;;;;;;9.23;2.30;;;20.40;64.30;;;;;;7900688;28;20245;-50
2022/04/03 17:42:18;;;;;;;5.85;2.75;;;20.50;64.20;;;;;;7900304;28;20176;-50
2022/04/03 17:46:04;;;;;;;6.65;2.33;;;20.70;64.20;;;;;;7928003;28;20219;-52
2022/04/03 17:49:49;;;;;;;8.98;2.58;;;20.90;63.90;;;;;;7936658;28;20238;-51
2022/04/03 17:53:35;;;;;;;10.15;2.53;;;21.10;63.60;;;;;;7924820;28;20211;-49
2022/04/03 17:57:20;;;;;;;6.68;2.30;;;21.30;63.70;;;;;;7906045;28;20187;-50
2022/04/03 18:01:06;;;;;;;7.30;2.25;;;21.50;63.40;;;;;;7905161;28;20594;-52
2022/04/03 18:04:53;;;;;;;10.38;2.47;;;21.70;63.20;;;;;;7905237;28;20203;-50
2022/04/03 18:08:39;;;;;;;8.82;2.53;;;21.80;63.10;;;;;;7905308;28;20172;-50
2022/04/03 18:12:25;;;;;;;18.95;2.63;;;21.90;63.00;;;;;;7904596;28;20730;-52
2022/04/03 18:16:18;;;;;;;15.75;2.25;;;22.00;63.00;;;;;;7904732;28;20275;-51
2022/04/03 18:20:05;;;;;;;13.30;2.22;;;21.90;62.90;;;;;;7936006;28;20657;-50
2022/04/03 18:23:51;;;;;;;22.90;2.97;;;21.90;63.20;;;;;;7935930;28;20654;-52
2022/04/03 18:27:36;;;;;;;33.53;3.63;;;21.70;59.50;;;;;;7936062;28;20164;-50
2022/04/03 18:31:21;;;;;;;48.05;4.47;;;21.50;60.70;;;;;;7935541;28;20290;-49
2022/04/03 18:35:07;;;;;;;15.70;2.60;;;21.50;61.50;;;;;;7935630;28;20196;-50
2022/04/03 18:38:54;;;;;;;13.70;2.40;;;21.40;61.90;;;;;;7935603;28;20175;-52
2022/04/03 18:42:41;;;;;;;18.23;2.65;;;21.50;62.00;;;;;;7935117;28;20658;-50
2022/04/03 18:46:26;;;;;;;17.67;2.75;;;21.70;62.10;;;;;;7905325;28;20238;-49
2022/04/03 18:50:11;;;;;;;25.25;3.15;;;21.70;62.10;;;;;;7903003;28;20213;-51
2022/04/03 18:53:57;;;;;;;22.60;3.53;;;21.90;62.60;;;;;;7903082;28;20197;-50
2022/04/03 18:57:43;;;;;;;26.67;3.00;;;22.00;63.70;;;;;;7903366;28;20518;-49
2022/04/03 19:01:28;;;;;;;20.65;3.10;;;22.10;64.20;;;;;;7903120;28;20662;-50
2022/04/03 19:05:14;;;;;;;17.05;3.22;;;22.20;64.40;;;;;;7903254;28;20686;-52
2022/04/03 19:09:02;;;;;;;12.93;2.72;;;22.20;64.50;;;;;;7902981;28;20184;-49
2022/04/03 19:12:48;;;;;;;20.73;3.33;;;22.20;64.10;;;;;;7902415;28;20269;-49
2022/04/03 19:16:34;;;;;;;13.70;2.42;;;22.20;64.50;;;;;;7902777;28;20685;-52
2022/04/03 19:20:20;;;;;;;17.58;2.63;;;22.10;64.80;;;;;;7902570;28;20634;-49
2022/04/03 19:24:08;;;;;;;11.13;2.33;;;22.00;65.00;;;;;;7902211;28;20618;-51
2022/04/03 19:27:54;;;;;;;16.38;2.40;;;22.00;65.00;;;;;;7930347;28;20192;-51
2022/04/03 19:31:40;;;;;;;8.65;2.65;;;21.90;65.20;;;;;;7909964;28;20304;-52
2022/04/03 19:35:25;;;;;;;15.35;2.38;;;21.80;65.40;;;;;;7904681;28;20205;-49
2022/04/03 19:39:11;;;;;;;8.10;2.42;;;21.70;65.60;;;;;;7901736;28;20185;-54